Time;durP1;ratioP1;P1;durP2;ratioP2;P2;SDS_P1;SDS_P2;PMS_P1;PMS_P2;Temp;Humidity;BMP_temperature;BMP_pressure;BME280_temperature;BME280_humidity;BME280_pressure;Samples;Min_cycle;Max_cycle;Signal;HPM_P1;HPM_P2
2022/07/05 00:00:12;;;;;;;2.80;1.80;;;12.60;99.90;;;;;;5067696;28;20052;-74
2022/07/05 00:02:38;;;;;;;3.47;1.70;;;12.60;99.90;;;;;;5052375;28;20052;-74
2022/07/05 00:05:04;;;;;;;2.80;1.60;;;12.50;99.90;;;;;;5058808;28;20036;-74
2022/07/05 00:07:29;;;;;;;3.33;1.85;;;12.50;99.90;;;;;;5049305;28;20413;-73
2022/07/05 00:09:57;;;;;;;3.50;1.55;;;12.50;99.90;;;;;;5069026;28;20041;-72
2022/07/05 00:12:26;;;;;;;3.40;1.52;;;12.40;99.90;;;;;;5074169;28;20087;-71
2022/07/05 00:14:52;;;;;;;5.25;1.90;;;12.40;99.90;;;;;;5074769;28;20036;-72
2022/07/05 00:17:18;;;;;;;2.90;1.50;;;12.40;99.90;;;;;;5074025;28;20388;-71
2022/07/05 00:19:43;;;;;;;2.92;1.98;;;12.30;99.90;;;;;;5074237;28;20568;-71
2022/07/05 00:22:09;;;;;;;2.17;1.58;;;12.30;99.90;;;;;;5074272;28;20127;-72
2022/07/05 00:24:35;;;;;;;2.33;1.48;;;12.30;99.90;;;;;;5056497;28;20404;-71
2022/07/05 00:27:01;;;;;;;2.67;1.67;;;12.30;99.90;;;;;;5074053;28;20052;-72
2022/07/05 00:29:27;;;;;;;2.92;1.73;;;12.30;99.90;;;;;;5074053;28;20401;-71
2022/07/05 00:31:53;;;;;;;2.00;1.42;;;12.30;99.90;;;;;;5073473;28;20110;-71
2022/07/05 00:34:19;;;;;;;2.38;1.60;;;12.20;99.90;;;;;;5073869;28;20400;-71
2022/07/05 00:36:44;;;;;;;2.17;1.60;;;12.30;99.90;;;;;;5074179;28;20048;-71
2022/07/05 00:39:10;;;;;;;3.60;1.63;;;12.30;99.90;;;;;;5073866;28;20499;-72
2022/07/05 00:41:36;;;;;;;2.55;1.48;;;12.20;99.90;;;;;;5056418;28;20048;-71
2022/07/05 00:44:05;;;;;;;3.10;1.83;;;12.20;99.90;;;;;;5073854;28;20125;-72
2022/07/05 00:46:31;;;;;;;3.40;1.70;;;12.20;99.90;;;;;;5074265;28;20036;-72
2022/07/05 00:48:58;;;;;;;3.47;2.22;;;12.30;99.90;;;;;;5073713;28;20052;-72
2022/07/05 00:51:25;;;;;;;2.63;1.85;;;12.30;99.90;;;;;;5074523;28;20162;-72
2022/07/05 00:53:51;;;;;;;3.47;2.00;;;12.30;99.90;;;;;;5073535;28;20053;-72
2022/07/05 00:56:19;;;;;;;3.13;1.70;;;12.30;99.90;;;;;;5073540;28;20049;-72
2022/07/05 00:58:45;;;;;;;2.88;1.73;;;12.30;99.90;;;;;;5073656;28;20041;-72
2022/07/05 01:01:11;;;;;;;2.58;1.45;;;12.20;99.90;;;;;;5073940;28;20093;-71
2022/07/05 01:03:37;;;;;;;2.25;1.70;;;12.10;99.90;;;;;;5073588;28;20040;-72
2022/07/05 01:06:06;;;;;;;2.83;1.58;;;12.10;99.90;;;;;;5073567;28;20098;-71
2022/07/05 01:08:35;;;;;;;2.85;1.70;;;12.00;99.90;;;;;;5074252;28;20048;-72
2022/07/05 01:11:01;;;;;;;2.38;1.80;;;11.90;99.90;;;;;;5073483;28;20044;-72
2022/07/05 01:13:27;;;;;;;3.30;1.92;;;11.90;99.90;;;;;;5072495;28;20111;-71
2022/07/05 01:15:53;;;;;;;2.78;2.38;;;11.80;99.90;;;;;;5073898;28;20044;-71
2022/07/05 01:18:20;;;;;;;3.47;2.10;;;11.80;99.90;;;;;;5072237;28;20128;-71
2022/07/05 01:20:48;;;;;;;3.65;2.10;;;11.80;99.90;;;;;;5072233;28;20040;-71
2022/07/05 01:23:15;;;;;;;3.90;2.22;;;11.70;99.90;;;;;;5073326;28;20045;-71
2022/07/05 01:25:41;;;;;;;4.45;2.60;;;11.70;99.90;;;;;;5074028;28;20037;-71
2022/07/05 01:28:07;;;;;;;4.63;2.88;;;11.70;99.90;;;;;;5073273;28;20105;-72
2022/07/05 01:30:36;;;;;;;4.35;2.65;;;11.70;99.90;;;;;;5073261;28;20168;-72
2022/07/05 01:33:04;;;;;;;2.53;2.08;;;11.80;99.90;;;;;;5072515;28;20048;-71
2022/07/05 01:35:30;;;;;;;3.95;2.30;;;11.80;99.90;;;;;;5073128;28;20068;-72
2022/07/05 01:37:55;;;;;;;4.82;2.17;;;11.60;99.90;;;;;;5071990;28;20121;-72
2022/07/05 01:40:21;;;;;;;3.17;2.28;;;11.60;99.90;;;;;;5073507;28;20233;-72
2022/07/05 01:42:47;;;;;;;3.83;2.28;;;11.50;99.90;;;;;;5073201;28;20044;-72
2022/07/05 01:45:38;;;;;;;4.03;2.60;;;11.40;99.90;;;;;;5073145;28;20369;-72
2022/07/05 01:48:00;;;;;;;3.40;2.73;;;11.40;99.90;;;;;;5071415;28;20481;-72
2022/07/05 01:50:29;;;;;;;3.78;2.80;;;11.30;99.90;;;;;;5073725;28;20473;-72
2022/07/05 01:52:56;;;;;;;3.88;2.50;;;11.30;99.90;;;;;;5077368;28;20376;-72
2022/07/05 01:55:22;;;;;;;3.90;2.47;;;11.30;99.90;;;;;;5077781;28;20044;-71
2022/07/05 01:57:47;;;;;;;3.40;2.38;;;11.20;99.90;;;;;;5077072;28;20048;-71
2022/07/05 02:00:13;;;;;;;3.78;2.85;;;11.20;99.90;;;;;;5076741;28;20048;-72
2022/07/05 02:02:43;;;;;;;3.55;2.65;;;11.20;99.90;;;;;;5076690;28;20405;-73
2022/07/05 02:05:08;;;;;;;4.65;2.80;;;11.20;99.90;;;;;;5076605;28;20470;-71
2022/07/05 02:07:34;;;;;;;3.35;2.85;;;11.10;99.90;;;;;;5076509;28;20051;-71
2022/07/05 02:10:00;;;;;;;3.58;2.60;;;11.10;99.90;;;;;;5076812;28;20041;-71
2022/07/05 02:12:25;;;;;;;4.80;2.88;;;11.10;99.90;;;;;;5077094;28;20128;-71
2022/07/05 02:14:51;;;;;;;4.18;2.53;;;11.10;99.90;;;;;;5076596;28;20462;-72
2022/07/05 02:17:16;;;;;;;3.60;2.70;;;11.00;99.90;;;;;;5075733;28;20385;-71
2022/07/05 02:19:42;;;;;;;4.25;2.60;;;11.00;99.90;;;;;;5059274;28;20123;-71
2022/07/05 02:22:08;;;;;;;3.78;3.00;;;10.90;99.90;;;;;;5076537;28;20048;-72
2022/07/05 02:24:33;;;;;;;4.47;3.00;;;10.90;99.90;;;;;;5077275;28;20049;-72
2022/07/05 02:26:59;;;;;;;4.45;3.40;;;10.90;99.90;;;;;;5076540;28;20456;-72
2022/07/05 02:29:25;;;;;;;4.60;3.20;;;11.00;99.90;;;;;;5076921;28;20041;-71
2022/07/05 02:31:51;;;;;;;4.20;3.00;;;11.00;99.90;;;;;;5076818;28;20044;-72
2022/07/05 02:34:16;;;;;;;3.92;3.20;;;11.10;99.90;;;;;;5076819;28;20044;-71
2022/07/05 02:36:42;;;;;;;4.47;2.88;;;11.10;99.90;;;;;;5076325;28;20036;-71
2022/07/05 02:39:08;;;;;;;5.00;3.33;;;11.00;99.90;;;;;;5076787;28;20110;-72
2022/07/05 02:41:33;;;;;;;4.60;3.35;;;11.10;99.90;;;;;;5076289;28;20048;-72
2022/07/05 02:43:59;;;;;;;5.40;3.53;;;11.10;99.90;;;;;;5076210;28;20063;-71
2022/07/05 02:46:25;;;;;;;4.55;3.53;;;11.10;99.90;;;;;;5058820;28;20048;-71
2022/07/05 02:48:52;;;;;;;5.22;3.85;;;11.10;99.90;;;;;;5076096;28;20075;-72
2022/07/05 02:51:18;;;;;;;3.92;3.15;;;11.10;99.90;;;;;;5076079;28;20048;-72
2022/07/05 02:53:43;;;;;;;3.88;2.83;;;11.10;99.90;;;;;;5075968;28;20434;-72
2022/07/05 02:56:09;;;;;;;5.13;3.50;;;11.10;99.90;;;;;;5075910;28;20509;-72
2022/07/05 02:58:37;;;;;;;4.90;3.78;;;11.10;99.90;;;;;;5058566;28;20045;-72
2022/07/05 03:01:03;;;;;;;5.05;3.60;;;11.00;99.90;;;;;;5075732;28;20045;-72
2022/07/05 03:03:28;;;;;;;4.53;3.40;;;11.00;99.90;;;;;;5075653;28;20128;-72
2022/07/05 03:05:54;;;;;;;4.78;3.67;;;11.00;99.90;;;;;;5075778;28;20070;-72
2022/07/05 03:08:20;;;;;;;4.88;3.83;;;11.10;99.90;;;;;;5076269;28;20097;-72
2022/07/05 03:10:45;;;;;;;4.13;3.60;;;11.00;99.90;;;;;;5075663;28;20444;-72
2022/07/05 03:13:11;;;;;;;5.32;3.80;;;11.00;99.90;;;;;;5075663;28;20120;-71
2022/07/05 03:15:37;;;;;;;6.07;4.25;;;11.00;99.90;;;;;;5076374;28;20044;-71
2022/07/05 03:18:03;;;;;;;5.03;4.30;;;11.00;99.90;;;;;;5074602;28;20461;-71
2022/07/05 03:20:29;;;;;;;5.68;4.78;;;11.00;99.90;;;;;;5076070;28;20044;-71
2022/07/05 03:22:54;;;;;;;6.50;4.63;;;11.10;99.90;;;;;;5075677;28;20048;-72
2022/07/05 03:25:20;;;;;;;5.88;4.68;;;11.10;99.90;;;;;;5075598;28;20346;-72
2022/07/05 03:27:46;;;;;;;6.63;4.85;;;11.20;99.90;;;;;;5075422;28;20037;-72
2022/07/05 03:30:12;;;;;;;6.57;4.32;;;11.20;99.90;;;;;;5073797;28;20041;-72
2022/07/05 03:32:37;;;;;;;6.50;4.40;;;11.20;99.90;;;;;;5075298;28;20044;-71
2022/07/05 03:35:04;;;;;;;5.53;4.68;;;11.20;99.90;;;;;;5075673;28;20071;-71
2022/07/05 03:37:29;;;;;;;8.43;5.25;;;11.20;99.90;;;;;;5073935;28;20045;-71
2022/07/05 03:39:55;;;;;;;7.68;4.90;;;11.20;99.90;;;;;;5074092;28;20055;-72
2022/07/05 03:42:21;;;;;;;6.57;4.93;;;11.20;99.90;;;;;;5075140;28;20038;-72
2022/07/05 03:44:46;;;;;;;6.47;4.78;;;11.20;99.90;;;;;;5074988;28;20044;-72
2022/07/05 03:47:14;;;;;;;7.60;5.10;;;11.20;99.90;;;;;;5075032;28;20491;-72
2022/07/05 03:49:39;;;;;;;6.20;4.63;;;11.20;99.90;;;;;;5074970;28;20051;-72
2022/07/05 03:52:05;;;;;;;7.05;5.53;;;11.30;99.90;;;;;;5074565;28;20373;-72
2022/07/05 03:54:31;;;;;;;6.47;5.28;;;11.30;99.90;;;;;;5074627;28;20049;-72
2022/07/05 03:56:57;;;;;;;7.03;5.07;;;11.40;99.90;;;;;;5074820;28;20135;-72
2022/07/05 03:59:22;;;;;;;8.05;5.43;;;11.40;99.90;;;;;;5074793;28;20128;-72
2022/07/05 04:01:48;;;;;;;6.90;5.30;;;11.40;99.90;;;;;;5074191;28;20040;-72
2022/07/05 04:04:14;;;;;;;7.55;5.38;;;11.40;99.90;;;;;;5074715;28;20044;-71
2022/07/05 04:06:40;;;;;;;7.13;5.13;;;11.40;99.90;;;;;;5075117;28;20047;-71
2022/07/05 04:09:05;;;;;;;7.85;5.50;;;11.40;99.90;;;;;;5073784;28;20037;-72
2022/07/05 04:11:31;;;;;;;7.15;5.53;;;11.50;99.90;;;;;;5075296;28;20176;-72
2022/07/05 04:13:57;;;;;;;7.05;5.57;;;11.50;99.90;;;;;;5073831;28;20040;-72
2022/07/05 04:16:22;;;;;;;6.88;5.50;;;11.60;99.90;;;;;;5074463;28;20119;-72
2022/07/05 04:18:48;;;;;;;7.03;5.53;;;11.60;99.90;;;;;;5074358;28;20036;-72
2022/07/05 04:21:14;;;;;;;7.18;5.70;;;11.70;99.90;;;;;;5074336;28;20044;-72
2022/07/05 04:23:39;;;;;;;8.35;5.72;;;11.70;99.90;;;;;;5074281;28;20040;-72
2022/07/05 04:26:05;;;;;;;8.00;6.10;;;11.80;99.90;;;;;;5073294;28;20040;-72
2022/07/05 04:28:31;;;;;;;7.35;6.03;;;11.90;99.90;;;;;;5073998;28;20036;-72
2022/07/05 04:30:57;;;;;;;8.77;5.65;;;12.00;99.90;;;;;;5074082;28;20048;-72
2022/07/05 04:33:24;;;;;;;7.97;5.97;;;12.10;99.90;;;;;;5073141;28;20048;-72
2022/07/05 04:35:49;;;;;;;7.25;5.95;;;12.10;99.90;;;;;;5074049;28;20076;-71
2022/07/05 04:38:15;;;;;;;9.25;6.10;;;12.20;99.90;;;;;;5073938;28;20086;-72
2022/07/05 04:40:41;;;;;;;7.97;6.05;;;12.20;99.90;;;;;;5073937;28;20040;-72
2022/07/05 04:43:07;;;;;;;8.45;5.85;;;12.30;99.90;;;;;;5074045;28;20102;-72
2022/07/05 04:45:33;;;;;;;7.60;6.07;;;12.40;99.90;;;;;;5073509;28;20045;-72
2022/07/05 04:47:59;;;;;;;7.82;6.28;;;12.40;99.90;;;;;;5073324;28;20377;-72
2022/07/05 04:50:24;;;;;;;7.50;6.15;;;12.50;99.90;;;;;;5073428;28;20089;-72
2022/07/05 04:52:50;;;;;;;12.05;6.25;;;12.50;99.90;;;;;;5072177;28;20043;-72
2022/07/05 04:55:16;;;;;;;8.43;6.32;;;12.60;99.90;;;;;;5073024;28;20058;-72
2022/07/05 04:57:42;;;;;;;7.13;6.20;;;12.70;99.90;;;;;;5073669;28;20047;-72
2022/07/05 05:00:10;;;;;;;6.97;5.80;;;12.70;99.90;;;;;;5073670;28;20066;-72
2022/07/05 05:02:36;;;;;;;7.57;5.45;;;12.80;99.90;;;;;;5073544;28;20041;-72
2022/07/05 05:05:02;;;;;;;7.95;5.93;;;12.90;99.90;;;;;;5073451;28;20064;-72
2022/07/05 05:07:28;;;;;;;8.82;5.63;;;12.90;99.90;;;;;;5073543;28;20088;-72
2022/07/05 05:09:53;;;;;;;7.30;5.95;;;13.00;99.90;;;;;;5073561;28;20153;-72
2022/07/05 05:12:19;;;;;;;7.07;5.60;;;13.10;99.90;;;;;;5073446;28;20428;-72
2022/07/05 05:14:44;;;;;;;9.38;6.00;;;13.20;99.90;;;;;;5073443;28;20040;-72
2022/07/05 05:17:10;;;;;;;7.03;5.63;;;13.40;99.90;;;;;;5073424;28;20082;-72
2022/07/05 05:19:36;;;;;;;6.63;5.60;;;13.40;99.90;;;;;;5072224;28;20040;-72
2022/07/05 05:22:02;;;;;;;6.38;5.70;;;13.50;99.90;;;;;;5072132;28;20377;-72
2022/07/05 05:24:27;;;;;;;8.35;5.40;;;13.60;99.90;;;;;;5073523;28;20044;-72
2022/07/05 05:26:53;;;;;;;9.48;5.78;;;13.70;99.90;;;;;;5072557;28;20041;-72
2022/07/05 05:29:20;;;;;;;7.53;5.22;;;13.70;99.90;;;;;;5055623;28;20037;-72
2022/07/05 05:31:46;;;;;;;6.78;5.75;;;13.90;99.90;;;;;;5073712;28;20500;-72
2022/07/05 05:34:12;;;;;;;7.53;5.57;;;14.00;99.90;;;;;;5073305;28;20415;-72
2022/07/05 05:36:38;;;;;;;7.80;5.60;;;14.00;99.90;;;;;;5073750;28;20045;-73
2022/07/05 05:39:04;;;;;;;6.25;4.90;;;14.10;99.90;;;;;;5089340;28;20044;-72
2022/07/05 05:41:30;;;;;;;6.97;5.00;;;14.20;99.90;;;;;;5073050;28;20040;-72
2022/07/05 05:43:56;;;;;;;8.52;5.30;;;14.30;99.90;;;;;;5072130;28;20044;-72
2022/07/05 05:46:21;;;;;;;5.93;4.80;;;14.30;99.90;;;;;;5073696;28;20058;-72
2022/07/05 05:48:47;;;;;;;8.90;5.00;;;14.50;99.90;;;;;;5072643;28;20048;-72
2022/07/05 05:51:13;;;;;;;6.18;4.80;;;14.50;99.90;;;;;;5071829;28;20055;-72
2022/07/05 05:53:38;;;;;;;6.05;4.53;;;14.60;99.90;;;;;;5071619;28;20052;-72
2022/07/05 05:56:04;;;;;;;7.00;4.70;;;14.70;99.90;;;;;;5073016;28;20041;-72
2022/07/05 05:58:30;;;;;;;5.30;4.43;;;14.80;99.90;;;;;;5072927;28;20044;-72
2022/07/05 06:00:56;;;;;;;5.07;4.38;;;14.90;99.90;;;;;;5071686;28;20048;-72
2022/07/05 06:03:23;;;;;;;5.72;4.53;;;14.90;99.90;;;;;;5072982;28;20033;-72
2022/07/05 06:05:49;;;;;;;7.35;4.80;;;15.10;99.90;;;;;;5071745;28;20370;-72
2022/07/05 06:08:15;;;;;;;7.95;4.32;;;15.10;99.90;;;;;;5072885;28;20040;-66
2022/07/05 06:10:41;;;;;;;6.53;4.03;;;15.20;99.90;;;;;;5072884;28;20039;-65
2022/07/05 06:13:09;;;;;;;6.00;4.30;;;15.30;99.90;;;;;;5073302;28;20040;-66
2022/07/05 06:15:35;;;;;;;5.03;3.92;;;15.40;99.90;;;;;;5073083;28;20041;-66
2022/07/05 06:18:01;;;;;;;5.60;4.43;;;15.50;99.90;;;;;;5072844;28;20484;-66
2022/07/05 06:20:32;;;;;;;5.97;4.07;;;15.50;99.90;;;;;;5072836;28;20047;-66
2022/07/05 06:22:59;;;;;;;5.15;4.25;;;15.60;99.90;;;;;;5072798;28;20049;-66
2022/07/05 06:25:25;;;;;;;6.22;3.97;;;15.70;99.90;;;;;;5072609;28;20033;-66
2022/07/05 06:27:59;;;;;;;5.35;4.13;;;15.80;99.90;;;;;;5073451;28;20060;-66
2022/07/05 06:30:29;;;;;;;3.90;3.10;;;15.80;99.90;;;;;;5073176;28;20060;-66
2022/07/05 06:32:55;;;;;;;3.60;3.17;;;16.00;99.90;;;;;;5072622;28;20041;-66
2022/07/05 06:35:22;;;;;;;3.58;2.85;;;16.10;99.90;;;;;;5072700;28;20499;-66
2022/07/05 06:37:51;;;;;;;4.15;3.00;;;16.20;99.90;;;;;;5074884;28;20098;-66
2022/07/05 06:40:29;;;;;;;4.57;2.97;;;16.30;99.90;;;;;;5076263;28;20101;-66
2022/07/05 06:42:57;;;;;;;4.53;3.03;;;16.40;99.90;;;;;;5076556;28;20119;-66
2022/07/05 06:45:23;;;;;;;4.93;2.60;;;16.40;99.90;;;;;;5076029;28;20036;-66
2022/07/05 06:48:19;;;;;;;2.95;2.15;;;16.60;99.90;;;;;;5076094;28;20134;-65
2022/07/05 06:50:44;;;;;;;3.90;2.00;;;16.60;99.90;;;;;;5071389;28;20081;-66
2022/07/05 06:53:11;;;;;;;3.28;1.60;;;16.70;99.90;;;;;;5075836;28;20052;-66
2022/07/05 06:55:37;;;;;;;1.95;1.38;;;16.80;99.90;;;;;;5076882;28;20044;-66
2022/07/05 06:58:05;;;;;;;3.25;1.50;;;16.80;99.90;;;;;;5075919;28;20353;-66
2022/07/05 07:00:31;;;;;;;2.15;1.25;;;16.90;99.90;;;;;;5074913;28;20044;-66
2022/07/05 07:02:58;;;;;;;2.50;1.45;;;17.00;99.90;;;;;;5075940;28;20041;-66
2022/07/05 07:05:24;;;;;;;3.20;1.90;;;17.00;99.90;;;;;;5076277;28;20044;-66
2022/07/05 07:10:33;;;;;;;4.95;1.60;;;17.20;99.90;;;;;;5075776;28;20050;-67
2022/07/05 07:13:00;;;;;;;3.55;1.50;;;17.30;99.90;;;;;;5074331;28;20119;-67
2022/07/05 07:15:26;;;;;;;3.45;1.50;;;17.40;99.90;;;;;;5075659;28;20041;-66
2022/07/05 07:17:52;;;;;;;3.72;1.45;;;17.50;99.90;;;;;;5074465;28;20048;-65
2022/07/05 07:20:18;;;;;;;2.63;1.45;;;17.50;99.90;;;;;;5075933;28;20154;-66
2022/07/05 07:22:43;;;;;;;2.75;1.40;;;17.60;99.90;;;;;;5075192;28;20063;-66
2022/07/05 07:25:11;;;;;;;3.35;1.60;;;17.70;99.90;;;;;;5075350;28;20028;-66
2022/07/05 07:27:44;;;;;;;3.25;1.52;;;17.80;99.90;;;;;;5074386;28;20133;-66
2022/07/05 07:30:14;;;;;;;2.58;1.45;;;17.90;99.90;;;;;;5075393;28;20105;-67
2022/07/05 07:32:41;;;;;;;2.22;1.50;;;18.00;99.90;;;;;;5075826;28;20047;-67
2022/07/05 07:35:08;;;;;;;3.10;1.70;;;18.00;99.90;;;;;;5075269;28;20424;-67
2022/07/05 07:37:34;;;;;;;2.40;1.60;;;17.90;99.90;;;;;;5075752;28;20044;-67
2022/07/05 07:40:01;;;;;;;3.28;1.55;;;17.90;99.90;;;;;;5075985;28;20040;-65
2022/07/05 07:42:27;;;;;;;3.78;1.67;;;17.90;99.90;;;;;;5075607;28;20075;-68
2022/07/05 07:44:53;;;;;;;2.42;1.50;;;17.90;99.90;;;;;;5074034;28;20525;-65
2022/07/05 07:47:19;;;;;;;3.15;1.40;;;18.00;99.90;;;;;;5075556;28;20131;-66
2022/07/05 07:49:45;;;;;;;2.42;1.20;;;18.00;99.90;;;;;;5073954;28;20036;-65
2022/07/05 07:52:11;;;;;;;2.03;1.30;;;18.20;99.90;;;;;;5075459;28;20044;-66
2022/07/05 07:54:36;;;;;;;4.00;1.60;;;18.30;99.90;;;;;;5075154;28;20048;-66
2022/07/05 07:57:04;;;;;;;3.08;1.30;;;18.40;99.90;;;;;;5074909;28;20087;-66
2022/07/05 07:59:34;;;;;;;3.30;1.83;;;18.50;99.90;;;;;;5074768;28;20132;-67
2022/07/05 08:02:00;;;;;;;2.13;1.30;;;18.60;99.90;;;;;;5074522;28;20083;-67
2022/07/05 08:04:26;;;;;;;2.70;1.45;;;18.70;99.90;;;;;;5074232;28;20566;-66
2022/07/05 08:06:52;;;;;;;3.90;1.40;;;18.70;99.90;;;;;;5075222;28;20042;-68
2022/07/05 08:09:18;;;;;;;2.55;1.75;;;18.80;99.90;;;;;;5075147;28;20128;-67
2022/07/05 08:11:45;;;;;;;1.75;1.20;;;18.80;99.90;;;;;;5075264;28;20036;-67
2022/07/05 08:14:11;;;;;;;3.22;1.30;;;18.80;99.90;;;;;;5075150;28;20109;-67
2022/07/05 08:16:37;;;;;;;3.00;1.52;;;18.70;99.90;;;;;;5074423;28;20123;-67
2022/07/05 08:21:47;;;;;;;2.00;1.00;;;18.80;99.90;;;;;;5073687;28;20063;-67
2022/07/05 08:24:14;;;;;;;3.60;1.40;;;18.90;99.90;;;;;;5074299;28;20097;-67
2022/07/05 08:26:40;;;;;;;2.78;1.10;;;19.00;99.90;;;;;;5074678;28;20073;-67
2022/07/05 08:29:09;;;;;;;3.47;1.00;;;18.90;99.90;;;;;;5074437;28;20103;-67
2022/07/05 08:31:44;;;;;;;2.08;1.00;;;18.90;99.90;;;;;;5074195;28;20052;-67
2022/07/05 08:34:11;;;;;;;2.65;1.10;;;19.00;99.90;;;;;;5074212;28;20045;-67
2022/07/05 08:36:38;;;;;;;3.42;1.13;;;19.10;99.90;;;;;;5074083;28;20051;-67
2022/07/05 08:39:04;;;;;;;2.20;0.80;;;18.90;99.90;;;;;;5074102;28;20179;-67
2022/07/05 08:41:35;;;;;;;1.83;0.90;;;18.90;99.90;;;;;;5074798;28;20040;-67
2022/07/05 08:44:03;;;;;;;1.63;0.70;;;18.80;99.90;;;;;;5074476;28;20044;-67
2022/07/05 08:46:31;;;;;;;1.83;0.90;;;18.80;99.90;;;;;;5073788;28;20119;-68
2022/07/05 08:48:59;;;;;;;2.28;0.80;;;18.90;99.90;;;;;;5074324;28;20138;-68
2022/07/05 08:51:27;;;;;;;1.88;0.77;;;18.90;99.90;;;;;;5074357;28;20099;-67
2022/07/05 08:53:55;;;;;;;3.10;0.95;;;18.90;99.90;;;;;;5073408;28;20052;-67
2022/07/05 08:56:21;;;;;;;2.83;1.08;;;18.70;99.90;;;;;;5073970;28;20469;-67
2022/07/05 08:58:49;;;;;;;3.08;0.90;;;18.70;99.90;;;;;;5073706;28;20048;-68
2022/07/05 09:01:15;;;;;;;3.67;0.80;;;18.60;99.90;;;;;;5073287;28;20376;-67
2022/07/05 09:03:48;;;;;;;2.28;0.80;;;18.50;99.90;;;;;;5073596;28;20115;-67
2022/07/05 09:06:26;;;;;;;2.60;0.80;;;18.50;99.90;;;;;;5072182;28;20051;-67
2022/07/05 09:08:55;;;;;;;2.42;0.90;;;18.40;99.90;;;;;;5073555;28;20051;-67
2022/07/05 09:11:28;;;;;;;2.45;0.85;;;18.40;99.90;;;;;;5073147;28;20041;-66
2022/07/05 09:13:54;;;;;;;1.98;1.10;;;18.60;99.90;;;;;;5073928;28;20048;-67
2022/07/05 09:16:20;;;;;;;2.00;0.70;;;18.80;99.90;;;;;;5073405;28;20082;-66
2022/07/05 09:18:54;;;;;;;2.97;1.02;;;18.90;99.90;;;;;;5073374;28;20048;-67
2022/07/05 09:21:21;;;;;;;1.73;0.70;;;18.90;99.90;;;;;;5073237;28;20052;-66
2022/07/05 09:23:55;;;;;;;1.80;0.80;;;18.70;99.90;;;;;;5073485;28;20150;-67
2022/07/05 09:26:36;;;;;;;1.95;0.80;;;18.60;99.90;;;;;;5073125;28;20041;-67
2022/07/05 09:29:04;;;;;;;1.80;0.80;;;18.50;99.90;;;;;;5073511;28;20144;-67
2022/07/05 09:31:39;;;;;;;2.00;0.77;;;18.70;99.90;;;;;;5072940;28;20049;-66
2022/07/05 09:34:06;;;;;;;2.90;1.00;;;19.00;99.90;;;;;;5073768;28;20049;-66
2022/07/05 09:36:54;;;;;;;2.45;1.00;;;19.10;99.90;;;;;;5071895;28;20087;-66
2022/07/05 09:39:31;;;;;;;4.25;1.00;;;19.20;99.90;;;;;;5073654;28;20045;-66
2022/07/05 09:42:12;;;;;;;2.30;0.77;;;19.20;99.90;;;;;;5073563;28;20049;-66
2022/07/05 09:44:50;;;;;;;4.25;1.23;;;19.10;99.90;;;;;;5073052;28;20056;-66
2022/07/05 09:47:18;;;;;;;2.33;0.80;;;19.00;99.90;;;;;;5072997;28;20516;-67
2022/07/05 09:49:49;;;;;;;3.17;1.48;;;18.90;99.90;;;;;;5072846;28;20048;-65
2022/07/05 09:52:32;;;;;;;1.88;0.80;;;18.90;99.90;;;;;;5072874;28;20080;-67
2022/07/05 09:55:02;;;;;;;1.30;0.60;;;19.10;99.90;;;;;;5054833;28;20140;-66
2022/07/05 09:57:28;;;;;;;3.00;0.70;;;19.20;99.90;;;;;;5071498;28;20052;-67
2022/07/05 10:00:02;;;;;;;2.33;0.80;;;19.20;99.90;;;;;;5072683;28;20055;-67
2022/07/05 10:02:34;;;;;;;3.17;0.90;;;19.10;99.90;;;;;;5072607;28;20142;-67
2022/07/05 10:05:14;;;;;;;1.90;0.80;;;19.00;99.90;;;;;;5072872;28;20127;-67
2022/07/05 10:07:44;;;;;;;2.95;1.00;;;18.90;99.90;;;;;;5072673;28;20040;-66
2022/07/05 10:10:11;;;;;;;2.70;0.70;;;18.80;99.90;;;;;;5072689;28;20539;-66
2022/07/05 10:12:38;;;;;;;1.80;0.80;;;18.90;99.90;;;;;;5073845;28;20105;-68
2022/07/05 10:15:07;;;;;;;1.90;0.70;;;19.10;99.90;;;;;;5077031;28;20055;-66
2022/07/05 10:17:36;;;;;;;1.20;0.60;;;19.20;99.90;;;;;;5076174;28;20041;-68
2022/07/05 10:20:08;;;;;;;2.60;0.70;;;19.30;99.90;;;;;;5076134;28;20055;-66
2022/07/05 10:22:35;;;;;;;1.20;0.68;;;19.30;99.90;;;;;;5076104;28;20458;-68
2022/07/05 10:25:01;;;;;;;2.42;0.90;;;19.30;99.90;;;;;;5076243;28;20052;-66
2022/07/05 10:27:28;;;;;;;4.05;0.90;;;19.40;99.90;;;;;;5075957;28;20105;-66
2022/07/05 10:29:57;;;;;;;2.35;1.02;;;19.60;99.90;;;;;;5075933;28;20061;-66
2022/07/05 10:32:24;;;;;;;1.27;0.77;;;19.90;99.90;;;;;;5076198;28;20040;-68
2022/07/05 10:34:51;;;;;;;2.78;0.82;;;20.10;99.90;;;;;;5075799;28;20052;-67
2022/07/05 10:37:18;;;;;;;1.45;0.80;;;20.20;99.90;;;;;;5075774;28;20051;-66
2022/07/05 10:39:43;;;;;;;2.05;0.88;;;20.10;99.90;;;;;;5075721;28;20049;-66
2022/07/05 10:42:10;;;;;;;2.38;0.80;;;19.90;99.90;;;;;;5074447;28;20133;-66
2022/07/05 10:44:37;;;;;;;3.20;0.80;;;19.80;99.90;;;;;;5074456;28;20040;-66
2022/07/05 10:47:12;;;;;;;2.38;0.82;;;19.70;99.90;;;;;;5075541;28;20033;-66
2022/07/05 10:49:39;;;;;;;3.23;0.80;;;19.60;99.90;;;;;;5075213;28;20044;-65
2022/07/05 10:52:24;;;;;;;1.50;0.68;;;19.60;99.90;;;;;;5075563;28;20087;-66
2022/07/05 10:55:21;;;;;;;1.63;0.75;;;19.60;99.90;;;;;;5074989;28;20068;-65
2022/07/05 10:58:24;;;;;;;2.38;1.05;;;19.60;99.90;;;;;;5076155;28;20075;-65
2022/07/05 11:01:11;;;;;;;1.77;0.80;;;19.50;99.90;;;;;;5052890;28;20053;-65
2022/07/05 11:03:40;;;;;;;3.97;1.25;;;19.40;99.90;;;;;;5073727;28;20190;-65
2022/07/05 11:06:07;;;;;;;1.90;0.90;;;19.40;99.90;;;;;;5075264;28;20056;-65
2022/07/05 11:08:58;;;;;;;3.10;0.90;;;19.70;99.90;;;;;;5075116;28;20068;-65
2022/07/05 11:11:25;;;;;;;2.90;0.98;;;19.60;99.90;;;;;;5075059;28;20489;-67
2022/07/05 11:13:53;;;;;;;2.30;0.80;;;19.60;99.90;;;;;;5075101;28;20095;-66
2022/07/05 11:16:19;;;;;;;1.63;0.80;;;19.50;99.90;;;;;;5075081;28;20080;-66
2022/07/05 11:18:45;;;;;;;2.17;0.88;;;19.40;99.90;;;;;;5073758;28;20103;-66
2022/07/05 11:21:23;;;;;;;2.25;1.20;;;19.40;99.90;;;;;;5074954;28;20141;-66
2022/07/05 11:23:49;;;;;;;1.60;0.70;;;19.50;99.90;;;;;;5075303;28;20075;-66
2022/07/05 11:26:18;;;;;;;2.13;0.73;;;19.50;99.90;;;;;;5075414;28;20103;-67
2022/07/05 11:28:48;;;;;;;4.13;1.00;;;19.40;99.90;;;;;;5074956;28;20127;-67
2022/07/05 11:31:42;;;;;;;2.47;1.00;;;19.40;99.90;;;;;;5073654;28;20063;-67
2022/07/05 11:34:14;;;;;;;3.55;0.82;;;19.30;99.90;;;;;;5074731;28;20049;-66
2022/07/05 11:36:40;;;;;;;2.08;0.80;;;19.40;99.90;;;;;;5074660;28;20040;-67
2022/07/05 11:39:17;;;;;;;2.47;1.00;;;19.40;99.90;;;;;;5074827;28;20044;-66
2022/07/05 11:41:45;;;;;;;2.92;0.80;;;19.40;99.90;;;;;;5073366;28;20091;-68
2022/07/05 11:44:11;;;;;;;2.40;0.90;;;19.40;99.90;;;;;;5074572;28;20045;-67
2022/07/05 11:46:37;;;;;;;2.38;0.90;;;19.30;99.90;;;;;;5074916;28;20048;-67
2022/07/05 11:49:03;;;;;;;2.33;0.90;;;19.30;99.90;;;;;;5074765;28;20047;-67
2022/07/05 11:51:29;;;;;;;3.90;1.00;;;19.30;99.90;;;;;;5074902;28;20483;-67
2022/07/05 11:53:55;;;;;;;2.75;1.00;;;19.30;99.90;;;;;;5074296;28;20071;-66
2022/07/05 11:56:21;;;;;;;1.98;0.90;;;19.30;99.90;;;;;;5074245;28;20063;-66
2022/07/05 11:58:47;;;;;;;3.30;0.85;;;19.30;99.90;;;;;;5073697;28;20053;-66
2022/07/05 12:01:13;;;;;;;2.22;0.90;;;19.40;99.90;;;;;;5072829;28;20048;-67
2022/07/05 12:03:41;;;;;;;2.20;0.95;;;19.40;99.90;;;;;;5074077;28;20481;-67
2022/07/05 12:06:13;;;;;;;1.65;0.77;;;19.40;99.90;;;;;;5074214;28;20048;-68
2022/07/05 12:08:39;;;;;;;1.70;0.80;;;19.50;99.90;;;;;;5074184;28;20047;-68
2022/07/05 12:13:50;;;;;;;2.53;1.17;;;19.70;99.90;;;;;;5074694;28;20055;-66
2022/07/05 12:16:16;;;;;;;2.15;0.95;;;19.70;99.90;;;;;;5073933;28;20048;-67
2022/07/05 12:18:55;;;;;;;1.65;0.80;;;19.80;99.90;;;;;;5073282;28;20044;-67
2022/07/05 12:21:22;;;;;;;1.88;0.73;;;19.90;99.90;;;;;;5074476;28;20040;-66
2022/07/05 12:23:49;;;;;;;2.88;0.82;;;19.90;99.90;;;;;;5073918;28;20056;-66
2022/07/05 12:26:17;;;;;;;3.63;0.98;;;20.00;99.90;;;;;;5073780;28;20398;-66
2022/07/05 12:28:43;;;;;;;3.38;0.80;;;20.20;99.90;;;;;;5073814;28;20076;-67
2022/07/05 12:31:23;;;;;;;2.45;1.00;;;20.20;99.90;;;;;;5073698;28;20037;-66
2022/07/05 12:33:49;;;;;;;2.40;0.98;;;20.10;99.90;;;;;;5074239;28;20045;-66
2022/07/05 12:36:17;;;;;;;2.97;1.00;;;20.00;99.90;;;;;;5073372;28;20106;-66
2022/07/05 12:38:43;;;;;;;2.08;0.80;;;19.90;99.90;;;;;;5073577;28;20079;-67
2022/07/05 12:41:10;;;;;;;2.55;0.75;;;19.90;99.90;;;;;;5073559;28;20482;-66
2022/07/05 12:43:50;;;;;;;1.77;0.50;;;20.00;99.90;;;;;;5072186;28;20048;-67
2022/07/05 12:46:15;;;;;;;1.80;0.70;;;20.30;99.90;;;;;;5073876;28;20037;-67
2022/07/05 12:48:41;;;;;;;1.67;0.70;;;20.40;99.90;;;;;;5073457;28;20109;-66
2022/07/05 12:51:09;;;;;;;2.75;0.75;;;20.40;99.90;;;;;;5073423;28;20453;-66
2022/07/05 12:59:12;;;;;;;1.20;0.60;;;20.80;99.90;;;;;;5073360;28;20091;-65
2022/07/05 13:01:43;;;;;;;1.55;0.60;;;20.70;99.90;;;;;;5072472;28;20048;-65
2022/07/05 13:04:16;;;;;;;1.45;0.60;;;20.60;99.90;;;;;;5073266;28;20051;-66